/BCO-DMO/CaCO3_dissolution/in_situ_dissolution ---- Level 0

      Directory  DocumentationDownload and Other Operations...

 - At level 0 -  - At last level -       Flat list

#  In situ dissolution rates of biogenic calcites
#  PI: William Berelson
#  Co-PI: Jess Adkins
#  Contact: Adam Subhas
#  Version date (v1): 2021-08-18
=========================
Station  Latitude  Longitude  Cast_ID  ISO_DateTime_In      ISO_DateTime_Out     Sample_ID              Niskin  TALK           pH             DIC            Depth  Temperature  Salinity       Oca            Oar            Rate_ggd       Rate_gcm2d  Rate_error_ggd  Rate_error_gcm2d  log_rate_gcm2d  log_rate_error_gcm2d  Oca_corr  Rs         
-------------------------
2        27.75     -155.283   FA       2017-08-06T05:49Z    2017-08-07T06:55Z    aragonite              9       2308.5         7.336          2305.3         700    5.433        34.074         0.876          0.557          0e-2           0e-2        0e-2            0e-2              -6.76e+0        4e-2                  0e-2      Inf        
2        27.75     -155.283   FA       2017-08-06T05:49Z    2017-08-07T06:55Z    aragonite              10      2309.7         7.325          2310.4         710    5.329        34.081         0.848          0.540          0e-2           0e-2        0e-2            0e-2              -6.74e+0        4e-2                  0e-2      Inf        
2        27.75     -155.283   HW       2017-08-07T08:00Z    2017-08-07T18:39Z    aragonite              15      2425.2         7.450          2382.1         2020   2.092        34.617         0.886          0.571          1e-2           0e-2        0e-2            0e-2              -6.63e+0        1.2e-1                0e-2      Inf        
2        27.75     -155.283   HW2      2017-08-09T12:12Z    2017-08-10T19:20Z    calcite                9       2368.5         7.297          2378.7         979.3  3.937        34.364         0.758          0.483          0e-2           0e-2        0e-2            0e-2              -6.80e+0        3e-2                  0e-2      Inf        
2        27.75     -155.283   HW2      2017-08-09T12:12Z    2017-08-10T19:20Z    ehuxleyi               10      2363.8         7.299          2373.2         989.9  3.921        34.374         0.758          0.483          0e-2           0e-2        0e-2            0e-2              -7.99e+0        1.1e-1                0e-2      9.2e-1     
2        27.75     -155.283   HW2      2017-08-09T12:12Z    2017-08-10T19:20Z    ehuxleyi               11      2369.5         7.297          2379.5         999.4  3.903        34.381         0.755          0.481          0e-2           0e-2        0e-2            0e-2              -7.96e+0        9e-2                  0e-2      9.2e-1     
2        27.75     -155.283   HW2      2017-08-09T12:12Z    2017-08-10T19:20Z    ehuxleyi               10      2363.8         7.299          2373.2         989.9  3.921        34.374         0.758          0.483          0e-2           0e-2        0e-2            0e-2              -7.99e+0        1.1e-1                0e-2      9.2e-1     
2        27.75     -155.283   HW2      2017-08-09T12:12Z    2017-08-10T19:20Z    ehuxleyi               11      2369.5         7.297          2379.5         999.4  3.903        34.381         0.755          0.481          0e-2           0e-2        0e-2            0e-2              -7.96e+0        9e-2                  0e-2      9.2e-1     
3        35.267    -150.983   FA       2017-08-12T17:00Z    2017-08-12T20:16Z    aragonite              8       2316.3         7.255          2346.5         698.9  4.421        34.107         0.712          0.452          0e-2           0e-2        0e-2            0e-2              -6.68e+0        2e-2                  0e-2      Inf        
3        35.267    -150.983   FA       2017-08-12T17:00Z    2017-08-12T20:16Z    aragonite              10      2332.5         7.284          2352.7         738.9  4.232        34.141         0.764          0.486          1e-2           0e-2        0e-2            0e-2              -6.62e+0        2e-2                  0e-2      Inf        
3        35.267    -150.983   FA       2017-08-12T17:00Z    2017-08-12T20:16Z    aragonite              9       2328.8         7.286          2348.4         728.9  4.281        34.132         0.768          0.488          1e-2           0e-2        0e-2            0e-2              -6.53e+0        0e-2                  0e-2      Inf        
3        35.267    -150.983   FA       2017-08-12T17:00Z    2017-08-12T20:16Z    aragonite              7       2309.7         7.330          2314.2         648.7  4.694        34.065         0.869          0.552          1e-2           0e-2        0e-2            0e-2              -6.47e+0        1e-2                  0e-2      Inf        
3        35.267    -150.983   FA       2017-08-12T17:00Z    2017-08-12T20:16Z    aragonite              5       2301.8         7.385          2288.3         598.5  4.983        34.032         1.004          0.638          0e-2           0e-2        0e-2            0e-2              -7.09e+0        3e-2                  0e-2      Inf        
3        35.267    -150.983   FA       2017-08-12T17:00Z    2017-08-12T20:16Z    aragonite              4       2301.6         7.402          2282.2         573.7  5.190        34.009         1.057          0.671          0e-2           0e-2        0e-2            0e-2              -7.02e+0        2e-2                  0e-2      Inf        
3        35.267    -150.983   FA       2017-08-12T17:00Z    2017-08-12T20:16Z    aragonite              1       2283.8         7.470          2241.8         498.6  6.138        33.976         1.266          0.804          0e-2           0e-2        0e-2            0e-2              -7.14e+0        2e-2                  0e-2      Inf        
3        35.267    -150.983   HW       2017-08-13T21:20Z    2017-08-15T06:58Z    calcite                1       2306.5         7.343          2300.4         625    4.865        34.043         0.897          0.570          0e-2           0e-2        0e-2            0e-2              -7.64e+0        2.0e-1                0e-2      Inf        
3        35.267    -150.983   HW       2017-08-13T21:20Z    2017-08-15T06:58Z    calcite                3       2325.7         7.299          2334.5         725    4.297        34.129         0.789          0.502          0e-2           0e-2        0e-2            0e-2              -7.02e+0        4e-2                  0e-2      Inf        
3        35.267    -150.983   HW       2017-08-13T21:20Z    2017-08-15T06:58Z    calcite                4       2326.6         7.294          2337.2         735    4.252        34.137         0.777          0.494          0e-2           0e-2        0e-2            0e-2              -6.86e+0        5e-2                  0e-2      Inf        
3        35.267    -150.983   HW       2017-08-13T21:20Z    2017-08-15T06:58Z    calcite                5       2342.6         7.281          2357.8         800    4.009        34.185         0.746          0.474          0e-2           0e-2        0e-2            0e-2              -6.56e+0        2e-2                  0e-2      Inf        
3        35.267    -150.983   HW       2017-08-13T21:20Z    2017-08-15T06:58Z    calcite                7       2375.6         7.273          2394.0         1050   3.267        34.361         0.698          0.445          0e-2           0e-2        0e-2            0e-2              -6.26e+0        2e-2                  0e-2      Inf        
3        35.267    -150.983   HW       2017-08-13T21:20Z    2017-08-15T06:58Z    calcite                9       2408.6         7.329          2407.8         1500   2.529        34.539         0.734          0.470          0e-2           0e-2        0e-2            0e-2              -6.38e+0        2e-2                  0e-2      Inf        
3        35.267    -150.983   HW       2017-08-13T21:20Z    2017-08-15T06:58Z    calcite                12      2424.9         7.428          2389.8         2110   1.888        34.622         0.822          0.531          0e-2           0e-2        0e-2            0e-2              -7.41e+0        1.0e-1                0e-2      Inf        
3        35.267    -150.983   HW       2017-08-13T21:20Z    2017-08-15T06:58Z    ehuxleyi               2       2306.0         7.339          2301.3         635    4.777        34.055         0.884          0.562          0e-2           0e-2        0e-2            0e-2              -8.08e+0        1.7e-1                0e-2      9.2e-1     
3        35.267    -150.983   HW       2017-08-13T21:20Z    2017-08-15T06:58Z    ehuxleyi               6       2339.4         7.284          2354.0         810    3.963        34.199         0.751          0.478          0e-2           0e-2        0e-2            0e-2              -7.93e+0        8e-2                  0e-2      9.2e-1     
4        41.716    -148.3     FA       2017-08-16T21:15Z    2017-08-17T23:05Z    aragonite              5       2294.6         7.381          2276.7         500    4.995        33.977         1.012          0.642          0e-2           0e-2        0e-2            0e-2              -6.79e+0        3e-2                  0e-2      Inf        
4        41.716    -148.3     FA       2017-08-16T21:15Z    2017-08-17T23:05Z    aragonite              4       2286.5         7.425          2254.4         450    5.387        33.944         1.137          0.721          0e-2           0e-2        0e-2            0e-2              -6.94e+0        2e-2                  0e-2      Inf        
4        41.716    -148.3     FA       2017-08-16T21:15Z    2017-08-17T23:05Z    aragonite              3       2282.8         7.448          2243.2         425    5.687        33.941         1.209          0.767          0e-2           0e-2        0e-2            0e-2              -7.10e+0        3e-2                  0e-2      Inf        
4        41.716    -148.3     FA       2017-08-16T21:15Z    2017-08-17T23:05Z    aragonite              2       2276.7         7.462          2232.3         400    6.114        33.945         1.260          0.799          0e-2           0e-2        0e-2            0e-2              -7.27e+0        1.0e-1                0e-2      Inf        
4        41.716    -148.3     FA       2017-08-16T21:15Z    2017-08-17T23:05Z    aragonite              1       2271.5         7.536          2202.2         350    6.913        33.949         1.521          0.965          0e-2           0e-2        0e-2            0e-2              -7.33e+0        6e-2                  0e-2      Inf        
4        41.716    -148.3     FA       2017-08-16T21:15Z    2017-08-17T23:05Z    calcite                6       2313.1         7.335          2310.6         600    4.457        34.063         0.885          0.562          0e-2           0e-2        0e-2            0e-2              -7.16e+0        9e-2                  0e-2      Inf        
4        41.716    -148.3     FA       2017-08-16T21:15Z    2017-08-17T23:05Z    calcite                8       2322.3         7.254          2347.0         700    4.124        34.148         0.709          0.451          0e-2           0e-2        0e-2            0e-2              -6.66e+0        3e-2                  0e-2      Inf        
4        41.716    -148.3     FA       2017-08-16T21:15Z    2017-08-17T23:05Z    ehuxleyi               7       2321.6         7.310          2327.5         650    4.278        34.107         0.825          0.524          0e-2           0e-2        0e-2            0e-2              -7.92e+0        1.0e-1                0e-2      9.2e-1     
4        41.716    -148.3     FA       2017-08-16T21:15Z    2017-08-17T23:05Z    ehuxleyi               9       2331.4         7.298          2341.3         710    4.111        34.149         0.793          0.504          0e-2           0e-2        0e-2            0e-2              -7.96e+0        1.1e-1                0e-2      9.2e-1     
4        41.716    -148.3     FA       2017-08-16T21:15Z    2017-08-17T23:05Z    ehuxleyi               10      2333.8         7.294          2344.9         725    4.049        34.163         0.783          0.498          0e-2           0e-2        0e-2            0e-2              -7.82e+0        7e-2                  0e-2      9.2e-1     
4        41.716    -148.3     FA       2017-08-16T21:15Z    2017-08-17T23:05Z    ehuxleyi               11      2333.4         7.293          2344.8         740    4.014        34.170         0.779          0.495          0e-2           0e-2        0e-2            0e-2              -7.93e+0        1.0e-1                0e-2      9.2e-1     
4        41.716    -148.3     HW       2017-08-17T23:59Z    2017-08-19T12:00Z    benthicforam           7       2377.0         7.271          2396.4         1050   3.102        34.345         0.694          0.443          0e-2           0e-2        0e-2            0e-2              -6.26e+0        5.1e-1                0e-2      6.00e+0    
4        41.716    -148.3     HW       2017-08-17T23:59Z    2017-08-19T12:00Z    planktic_assemblage    8       2368.7         7.242          2398.4         1060   3.075        34.351         0.640          0.408          0e-2           0e-2        0e-2            0e-2              -7.14e+0        9e-2                  6.00e-2   1.50e+0    
4        41.716    -148.3     HW       2017-08-17T23:59Z    2017-08-19T12:00Z    calcite                2       2318.0         7.323          2319.5         620    4.367        34.083         0.858          0.544          0e-2           0e-2        0e-2            0e-2              -7.37e+0        1.0e-1                0e-2      Inf        
4        41.716    -148.3     HW       2017-08-17T23:59Z    2017-08-19T12:00Z    calcite                4       2329.4         7.313          2334.1         675    4.203        34.129         0.830          0.527          0e-2           0e-2        0e-2            0e-2              -7.16e+0        5e-2                  0e-2      Inf        
4        41.716    -148.3     HW       2017-08-17T23:59Z    2017-08-19T12:00Z    calcite                6       2380.0         7.282          2395.5         1040   3.119        34.342         0.717          0.457          0e-2           0e-2        0e-2            0e-2              -6.40e+0        1e-2                  0e-2      Inf        
4        41.716    -148.3     HW       2017-08-17T23:59Z    2017-08-19T12:00Z    calcite                10      2410.9         7.300          2420.1         1500   2.443        34.495         0.680          0.436          0e-2           0e-2        0e-2            0e-2              -6.05e+0        1e-2                  0e-2      Inf        
4        41.716    -148.3     HW       2017-08-17T23:59Z    2017-08-19T12:00Z    calcite                12      2430.6         7.391          2408.0         2100   1.907        34.607         0.749          0.484          0e-2           0e-2        0e-2            0e-2              -6.73e+0        3e-2                  0e-2      Inf        
4        41.716    -148.3     HW       2017-08-17T23:59Z    2017-08-19T12:00Z    ehuxleyi               1       2305.6         7.363          2293.9         550    4.743        34.014         0.959          0.608          0e-2           0e-2        0e-2            0e-2              -8.05e+0        1.4e-1                0e-2      9.2e-1     
4        41.716    -148.3     HW       2017-08-17T23:59Z    2017-08-19T12:00Z    ehuxleyi               3       2320.3         7.326          2320.8         630    4.326        34.093         0.863          0.548          0e-2           0e-2        0e-2            0e-2              -7.99e+0        8e-2                  0e-2      9.2e-1     
4        41.716    -148.3     HW       2017-08-17T23:59Z    2017-08-19T12:00Z    ehuxleyi               5       2327.4         7.302          2336.1         685    4.173        34.137         0.803          0.510          0e-2           0e-2        0e-2            0e-2              -7.98e+0        8e-2                  0e-2      9.2e-1     
4        41.716    -148.3     HW       2017-08-17T23:59Z    2017-08-19T12:00Z    ehuxleyi               9       2384.3         7.284          2399.3         1070   3.059        34.354         0.715          0.456          0e-2           0e-2        0e-2            0e-2              -7.77e+0        5e-2                  0e-2      9.2e-1     
4        41.716    -148.3     HW       2017-08-17T23:59Z    2017-08-19T12:00Z    ehuxleyi               11      2399.0         7.299          2408.5         1510   2.431        34.498         0.672          0.431          0e-2           0e-2        0e-2            0e-2              -7.60e+0        8e-2                  0e-2      9.2e-1     
5        49.683    -155.283   FA       2017-08-21T09:50Z    2017-08-23T18:59Z    benthicforam           9       2347.5         7.272          2366.1         700    3.372        34.260         0.747          0.474          0e-2           0e-2        0e-2            0e-2              -6.34e+0        2.7e-1                0e-2      6.00e+0    
5        49.683    -155.283   FA       2017-08-21T09:50Z    2017-08-23T18:59Z    ehuxleyi_orig          5       2336.7         7.245          2364.8         550    3.662        34.167         0.719          0.456          0e-2           0e-2        0e-2            0e-2              -7.40e+0        3e-2                  0e-2      2.00e+1    
5        49.683    -155.283   FA       2017-08-21T09:50Z    2017-08-23T18:59Z    calcite                6       2346.9         7.267          2367.6         620    3.565        34.212         0.750          0.476          0e-2           0e-2        0e-2            0e-2              -6.71e+0        1e-2                  0e-2      Inf        
5        49.683    -155.283   FA       2017-08-21T09:50Z    2017-08-23T18:59Z    calcite                4       2323.0         7.249          2350.0         430    3.811        34.061         0.741          0.469          0e-2           0e-2        0e-2            0e-2              -6.69e+0        2e-2                  0e-2      Inf        
5        49.683    -155.283   FA       2017-08-21T09:50Z    2017-08-23T18:59Z    calcite                2       2292.5         7.241          2321.8         255    3.766        33.849         0.745          0.470          0e-2           0e-2        0e-2            0e-2              -6.76e+0        1e-2                  0e-2      Inf        
5        49.683    -155.283   FA       2017-08-21T09:50Z    2017-08-23T18:59Z    ehuxleyi               7       2343.7         7.260          2366.6         630    3.539        34.218         0.735          0.467          0e-2           0e-2        0e-2            0e-2              -7.92e+0        6e-2                  0e-2      9.2e-1     
5        49.683    -155.283   FA       2017-08-21T09:50Z    2017-08-23T18:59Z    ehuxleyi               3       2327.6         7.244          2356.3         420    3.815        34.057         0.735          0.465          0e-2           0e-2        0e-2            0e-2              -8.01e+0        7e-2                  0e-2      9.2e-1     
5        49.683    -155.283   FA       2017-08-21T09:50Z    2017-08-23T18:59Z    ehuxleyi               1       2284.6         7.258          2308.1         245    3.746        33.833         0.775          0.489          0e-2           0e-2        0e-2            0e-2              -7.96e+0        4e-2                  0e-2      9.2e-1     
5        49.683    -155.283   HW       2017-08-22T17:28Z    2017-08-23T16:04Z    aragonite              16      2258.3         7.412          2231.8         135    3.829        33.406         1.147          0.722          0e-2           0e-2        0e-2            0e-2              -7.29e+0        1.8e-1                0e-2      Inf        
5        49.683    -155.283   HW       2017-08-22T17:28Z    2017-08-23T16:04Z    aragonite              13      2238.5         7.493          2187.0         120    4.049        33.031         1.379          0.868          0e-2           0e-2        0e-2            0e-2              -7.39e+0        1.4e-1                0e-2      Inf        
5        49.683    -155.283   HW       2017-08-22T17:28Z    2017-08-23T16:04Z    aragonite              12      2227.8         7.530          2164.5         115    4.079        32.884         1.500          0.944          0e-2           0e-2        0e-2            0e-2              -7.51e+0        1.5e-1                0e-2      Inf        
5        49.683    -155.283   HW       2017-08-22T17:28Z    2017-08-23T16:04Z    aragonite              11      2219.1         7.571          2142.5         110    3.981        32.808         1.643          1.033          0e-2           0e-2        0e-2            0e-2              -7.55e+0        1.8e-1                0e-2      Inf        
5        49.683    -155.283   HW       2017-08-22T17:28Z    2017-08-23T16:04Z    aragonite              10      2200.1         7.639          2100.7         100    4.185        32.694         1.908          1.199          0e-2           0e-2        0e-2            0e-2              -7.45e+0        1.8e-1                0e-2      Inf        
5        27.75     -155.283   HW3      2017-08-24T22:11Z    2017-08-26T08:00Z    calcite                2       2276.7         7.305          2284.7         163.1  3.644        33.701         0.883          0.556          0e-2           0e-2        0e-2            0e-2              -7.61e+0        2.1e-1                0e-2      Inf        
5        27.75     -155.283   HW3      2017-08-24T22:11Z    2017-08-26T08:00Z    calcite                3       2276.8         7.300          2286.3         168.1  3.646        33.704         0.872          0.550          0e-2           0e-2        0e-2            0e-2              -7.76e+0        2.6e-1                0e-2      Inf        
5        27.75     -155.283   HW3      2017-08-24T22:11Z    2017-08-26T08:00Z    calcite                5       2276.2         7.281          2292.0         178.3  3.665        33.733         0.829          0.523          0e-2           0e-2        0e-2            0e-2              -7.88e+0        3.7e-1                0e-2      Inf        
5        27.75     -155.283   HW3      2017-08-24T22:11Z    2017-08-26T08:00Z    calcite                7       2280.9         7.285          2295.3         188    3.666        33.743         0.838          0.529          0e-2           0e-2        0e-2            0e-2              -7.61e+0        2.3e-1                0e-2      Inf        
5        27.75     -155.283   HW3      2017-08-24T22:11Z    2017-08-26T08:00Z    calcite                8       2278.2         7.234          2309.8         193    3.678        33.760         0.736          0.464          0e-2           0e-2        0e-2            0e-2              -6.65e+0        2e-2                  0e-2      Inf        
5        27.75     -155.283   HW3      2017-08-24T22:11Z    2017-08-26T08:00Z    calcite                10      2283.4         7.275          2301.3         203.1  3.686        33.781         0.816          0.514          0e-2           0e-2        0e-2            0e-2              -6.81e+0        3e-2                  0e-2      Inf        
5        27.75     -155.283   HW3      2017-08-24T22:11Z    2017-08-26T08:00Z    calcite                11      2284.9         7.273          2303.4         208.1  3.694        33.790         0.811          0.512          0e-2           0e-2        0e-2            0e-2              -6.78e+0        3e-2                  0e-2      Inf        
5        27.75     -155.283   HW3      2017-08-24T22:11Z    2017-08-26T08:00Z    calcite                14      2295.4         7.267          2316.2         218    3.711        33.806         0.801          0.505          0e-2           0e-2        0e-2            0e-2              -6.76e+0        3e-2                  0e-2      Inf        
5        49.683    -155.283   HW3      2017-08-24T22:11Z    2017-08-26T08:00Z    ehuxleyi               4       2277.1         7.298          2287.2         173.1  3.652        33.719         0.868          0.547          0e-2           0e-2        0e-2            0e-2              -8.14e+0        1.8e-1                0e-2      9.2e-1     
5        49.683    -155.283   HW3      2017-08-24T22:11Z    2017-08-26T08:00Z    ehuxleyi               6       2279.7         7.282          2295.1         183    3.666        33.738         0.833          0.525          0e-2           0e-2        0e-2            0e-2              -8.16e+0        1.7e-1                0e-2      9.2e-1     
5        49.683    -155.283   HW3      2017-08-24T22:11Z    2017-08-26T08:00Z    ehuxleyi               9       2283.9         7.277          2301.1         198.2  3.682        33.777         0.821          0.518          0e-2           0e-2        0e-2            0e-2              -8.03e+0        1.2e-1                0e-2      9.2e-1